createdAt,value
2019-04-03T00:00:41.421Z,0.00
2019-04-03T00:01:41.405Z,0.00
2019-04-03T00:02:41.365Z,0.00
2019-04-03T00:03:41.350Z,0.00
2019-04-03T00:04:41.340Z,0.00
2019-04-03T00:05:41.332Z,0.00
2019-04-03T00:06:41.334Z,0.00
2019-04-03T00:07:41.307Z,0.00
2019-04-03T00:08:41.318Z,0.00
2019-04-03T00:09:41.287Z,0.00
2019-04-03T00:10:41.280Z,0.00
2019-04-03T00:11:41.289Z,0.00
2019-04-03T00:12:41.340Z,0.00
2019-04-03T00:13:42.353Z,0.00
2019-04-03T00:14:43.023Z,0.00
2019-04-03T00:15:41.225Z,0.00
2019-04-03T00:16:41.246Z,0.00
2019-04-03T00:17:41.206Z,0.00
2019-04-03T00:18:41.194Z,0.00
2019-04-03T00:19:41.183Z,0.00
2019-04-03T00:20:41.173Z,0.00
2019-04-03T00:21:41.188Z,0.00
2019-04-03T00:22:41.238Z,0.00
2019-04-03T00:23:41.139Z,0.00
2019-04-03T00:24:41.151Z,0.00
2019-04-03T00:25:41.112Z,0.00
2019-04-03T00:26:41.114Z,0.00
2019-04-03T00:27:41.159Z,0.00
2019-04-03T00:28:41.131Z,0.00
2019-04-03T00:29:41.094Z,0.00
2019-04-03T00:30:41.215Z,0.00
2019-04-03T00:31:41.050Z,0.00
2019-04-03T00:32:41.163Z,0.00
2019-04-03T00:33:41.028Z,0.00
2019-04-03T00:34:41.041Z,0.00
2019-04-03T00:35:40.999Z,0.00
2019-04-03T00:36:41.084Z,0.00
2019-04-03T00:37:40.977Z,0.00
2019-04-03T00:38:40.970Z,0.00
2019-04-03T00:39:40.995Z,0.00
2019-04-03T00:40:40.959Z,0.00
2019-04-03T00:41:40.964Z,0.00
2019-04-03T00:42:40.926Z,0.00
2019-04-03T00:43:40.943Z,0.00
2019-04-03T00:44:40.960Z,0.00
2019-04-03T00:45:40.901Z,0.00
2019-04-03T00:46:40.894Z,0.00
2019-04-03T00:47:40.920Z,0.00
2019-04-03T00:48:40.878Z,0.00
2019-04-03T00:49:40.863Z,0.00
2019-04-03T00:50:40.849Z,0.00
2019-04-03T00:51:40.830Z,0.00
2019-04-03T00:52:40.939Z,0.00
2019-04-03T00:53:40.857Z,0.00
2019-04-03T00:54:40.816Z,0.00
2019-04-03T00:55:40.789Z,0.00
2019-04-03T00:56:40.766Z,0.00
2019-04-03T00:57:40.762Z,0.00
2019-04-03T00:58:40.752Z,0.00
2019-04-03T00:59:40.836Z,0.00
2019-04-03T01:00:40.727Z,0.00
2019-04-03T01:01:40.722Z,0.00
2019-04-03T01:02:40.707Z,0.00
2019-04-03T01:03:40.697Z,0.00
2019-04-03T01:04:40.823Z,0.00
2019-04-03T01:05:40.682Z,0.00
2019-04-03T01:06:40.654Z,0.00
2019-04-03T01:07:40.650Z,0.00
2019-04-03T01:08:40.643Z,0.00
2019-04-03T01:09:40.652Z,0.00
2019-04-03T01:10:40.620Z,0.00
2019-04-03T01:11:40.607Z,0.00
2019-04-03T01:12:40.598Z,0.00
2019-04-03T01:13:40.592Z,0.00
2019-04-03T01:14:40.601Z,0.00
2019-04-03T01:15:40.559Z,0.00
2019-04-03T01:16:40.546Z,0.00
2019-04-03T01:17:40.537Z,0.00
2019-04-03T01:18:40.525Z,0.00
2019-04-03T01:19:40.514Z,0.00
2019-04-03T01:20:40.537Z,0.00
2019-04-03T01:21:40.592Z,0.00
2019-04-03T01:22:40.539Z,0.00
2019-04-03T01:23:40.478Z,0.00
2019-04-03T01:24:40.485Z,0.00
2019-04-03T01:25:40.455Z,0.00
2019-04-03T01:26:41.209Z,0.00
2019-04-03T01:27:41.770Z,0.00
2019-04-03T01:28:41.841Z,0.00
2019-04-03T01:29:42.351Z,0.00
2019-04-03T01:30:40.391Z,0.00
2019-04-03T01:31:40.479Z,0.00
2019-04-03T01:32:40.364Z,0.00
2019-04-03T01:33:40.351Z,0.00
2019-04-03T01:34:40.439Z,0.00
2019-04-03T01:35:40.577Z,0.00
2019-04-03T01:36:40.353Z,0.00
2019-04-03T01:37:40.318Z,0.00
2019-04-03T01:38:40.305Z,0.00
2019-04-03T01:39:40.288Z,0.00
2019-04-03T01:40:40.278Z,0.00
2019-04-03T01:41:40.290Z,0.00
2019-04-03T01:42:40.260Z,0.00
2019-04-03T01:43:40.263Z,0.00
2019-04-03T01:44:40.238Z,0.00
2019-04-03T01:45:40.232Z,0.00
2019-04-03T01:46:40.244Z,0.00
2019-04-03T01:47:40.200Z,0.00
2019-04-03T01:48:40.248Z,0.00
2019-04-03T01:49:40.189Z,0.00
2019-04-03T01:50:40.164Z,0.00
2019-04-03T01:51:40.160Z,0.00
2019-04-03T01:52:40.168Z,0.00
2019-04-03T01:53:40.131Z,0.00
2019-04-03T01:54:40.212Z,0.00
2019-04-03T01:55:40.117Z,0.00
2019-04-03T01:56:40.144Z,0.00
2019-04-03T01:57:40.138Z,0.00
2019-04-03T01:58:40.105Z,0.00
2019-04-03T01:59:40.073Z,0.00
2019-04-03T02:00:40.063Z,0.00
2019-04-03T02:01:40.050Z,0.00
2019-04-03T02:02:40.042Z,0.00
2019-04-03T02:03:41.684Z,0.00
2019-04-03T02:04:42.023Z,0.00
2019-04-03T02:05:39.999Z,0.00
2019-04-03T02:06:40.183Z,0.00
2019-04-03T02:07:39.981Z,0.00
2019-04-03T02:08:40.004Z,0.00
2019-04-03T02:09:40.083Z,0.00
2019-04-03T02:10:39.945Z,0.00
2019-04-03T02:11:39.937Z,0.00
2019-04-03T02:12:39.930Z,0.00
2019-04-03T02:13:39.912Z,0.00
2019-04-03T02:14:39.970Z,0.00
2019-04-03T02:15:39.901Z,0.00
2019-04-03T02:16:39.887Z,0.00
2019-04-03T02:17:39.878Z,0.00
2019-04-03T02:18:39.854Z,0.00
2019-04-03T02:19:39.878Z,0.00
2019-04-03T02:20:39.838Z,0.00
2019-04-03T02:21:39.830Z,0.00
2019-04-03T02:22:39.821Z,0.00
2019-04-03T02:23:39.807Z,0.00
2019-04-03T02:24:39.815Z,0.00
2019-04-03T02:25:39.780Z,0.00
2019-04-03T02:26:39.772Z,0.00
2019-04-03T02:27:39.781Z,0.00
2019-04-03T02:28:39.789Z,0.00
2019-04-03T02:29:40.398Z,0.00
2019-04-03T02:30:39.721Z,0.00
2019-04-03T02:31:39.765Z,0.00
2019-04-03T02:32:39.732Z,0.00
2019-04-03T02:33:39.694Z,0.00
2019-04-03T02:34:39.682Z,0.00
2019-04-03T02:35:40.615Z,0.00
2019-04-03T02:36:43.331Z,0.00
2019-04-03T02:37:40.660Z,0.00
2019-04-03T02:38:39.847Z,0.00
2019-04-03T02:39:39.636Z,0.00
2019-04-03T02:40:39.653Z,0.00
2019-04-03T02:41:39.805Z,0.00
2019-04-03T02:42:41.511Z,0.00
2019-04-03T02:43:39.580Z,0.00
2019-04-03T02:44:39.569Z,0.00
2019-04-03T02:45:39.555Z,0.00
2019-04-03T02:46:39.849Z,0.00
2019-04-03T02:47:39.546Z,0.00
2019-04-03T02:48:39.556Z,0.00
2019-04-03T02:49:42.084Z,0.00
2019-04-03T02:50:39.531Z,0.00
2019-04-03T02:51:39.491Z,0.00
2019-04-03T02:52:39.485Z,0.00
2019-04-03T02:53:39.509Z,0.00
2019-04-03T02:54:39.465Z,0.00
2019-04-03T02:55:40.624Z,0.00
2019-04-03T02:56:39.468Z,0.00
2019-04-03T02:57:39.432Z,0.00
2019-04-03T02:58:39.436Z,0.00
2019-04-03T02:59:39.417Z,0.00
2019-04-03T03:00:39.395Z,0.00
2019-04-03T03:01:40.426Z,0.00
2019-04-03T03:02:39.380Z,0.00
2019-04-03T03:03:39.389Z,0.00
2019-04-03T03:04:39.357Z,0.00
2019-04-03T03:05:39.358Z,0.00
2019-04-03T03:06:39.330Z,0.00
2019-04-03T03:07:39.319Z,0.00
2019-04-03T03:08:41.649Z,0.00
2019-04-03T03:09:39.541Z,0.00
2019-04-03T03:10:39.307Z,0.00
2019-04-03T03:11:39.428Z,0.00
2019-04-03T03:12:39.268Z,0.00
2019-04-03T03:13:39.264Z,0.00
2019-04-03T03:14:40.351Z,0.00
2019-04-03T03:15:43.301Z,0.00
2019-04-03T03:16:39.229Z,0.00
2019-04-03T03:17:39.224Z,0.00
2019-04-03T03:18:39.207Z,0.00
2019-04-03T03:19:39.203Z,0.00
2019-04-03T03:20:40.652Z,0.00
2019-04-03T03:21:39.508Z,0.00
2019-04-03T03:22:39.162Z,0.00
2019-04-03T03:23:39.156Z,0.00
2019-04-03T03:24:47.918Z,0.00
2019-04-03T03:25:39.151Z,0.00
2019-04-03T03:26:39.369Z,0.00
2019-04-03T03:27:41.896Z,0.00
2019-04-03T03:28:39.114Z,0.00
2019-04-03T03:29:39.361Z,0.00
2019-04-03T03:30:46.763Z,0.00
2019-04-03T03:32:01.559Z,0.00
2019-04-03T03:32:40.739Z,0.00
2019-04-03T03:33:41.183Z,0.00
2019-04-03T03:34:54.751Z,0.00
2019-04-03T03:35:44.380Z,0.00
2019-04-03T03:36:40.465Z,0.00
2019-04-03T03:37:39.096Z,0.00
2019-04-03T03:38:40.360Z,0.00
2019-04-03T03:39:42.673Z,0.00
2019-04-03T03:40:38.970Z,0.00
2019-04-03T03:41:38.976Z,0.00
2019-04-03T03:42:39.074Z,0.00
2019-04-03T03:43:39.128Z,0.00
2019-04-03T03:44:43.893Z,0.00
2019-04-03T03:45:39.922Z,0.00
2019-04-03T03:46:38.958Z,0.00
2019-04-03T03:47:38.933Z,0.00
2019-04-03T03:48:42.081Z,0.00
2019-04-03T03:49:38.911Z,0.00
2019-04-03T03:50:39.121Z,0.00
2019-04-03T03:51:38.847Z,0.00
2019-04-03T03:52:39.206Z,0.00
2019-04-03T03:53:38.908Z,0.00
2019-04-03T03:54:38.848Z,0.00
2019-04-03T03:55:38.826Z,0.00
2019-04-03T03:56:38.833Z,0.00
2019-04-03T03:57:40.225Z,0.00
2019-04-03T03:58:38.895Z,0.00
2019-04-03T03:59:38.770Z,0.00
2019-04-03T04:00:38.926Z,0.00
2019-04-03T04:01:38.742Z,0.00
2019-04-03T04:02:43.023Z,0.00
2019-04-03T04:03:41.101Z,0.00
2019-04-03T04:04:38.730Z,0.00
2019-04-03T04:05:38.706Z,0.00
2019-04-03T04:06:38.719Z,0.00
2019-04-03T04:07:38.805Z,0.00
2019-04-03T04:08:42.701Z,0.00
2019-04-03T04:09:39.918Z,0.00
2019-04-03T04:10:38.802Z,4.00
2019-04-03T04:11:38.664Z,4.00
2019-04-03T04:12:41.164Z,0.00
2019-04-03T04:13:38.660Z,4.00
2019-04-03T04:14:38.599Z,4.00
2019-04-03T04:15:39.176Z,4.00
2019-04-03T04:16:38.611Z,4.00
2019-04-03T04:17:38.574Z,4.00
2019-04-03T04:18:38.561Z,4.00
2019-04-03T04:19:38.552Z,8.00
2019-04-03T04:20:39.201Z,8.00
2019-04-03T04:21:38.527Z,8.00
2019-04-03T04:22:38.663Z,8.00
2019-04-03T04:23:38.504Z,12.00
2019-04-03T04:24:38.495Z,12.00
2019-04-03T04:25:38.484Z,12.00
2019-04-03T04:26:39.425Z,16.00
2019-04-03T04:27:39.110Z,16.00
2019-04-03T04:28:40.434Z,20.00
2019-04-03T04:29:41.264Z,24.00
2019-04-03T04:30:38.455Z,24.00
2019-04-03T04:31:38.421Z,28.00
2019-04-03T04:32:38.404Z,32.00
2019-04-03T04:33:38.584Z,36.00
2019-04-03T04:34:38.385Z,40.00
2019-04-03T04:35:38.583Z,48.00
2019-04-03T04:36:38.386Z,56.00
2019-04-03T04:37:40.176Z,60.00
2019-04-03T04:38:38.511Z,64.00
2019-04-03T04:39:38.339Z,68.00
2019-04-03T04:40:38.320Z,76.00
2019-04-03T04:41:38.309Z,76.00
2019-04-03T04:42:38.308Z,84.00
2019-04-03T04:43:39.390Z,88.00
2019-04-03T04:44:38.947Z,96.00
2019-04-03T04:45:38.274Z,104.00
2019-04-03T04:46:38.256Z,112.00
2019-04-03T04:47:38.253Z,120.00
2019-04-03T04:48:38.272Z,128.00
2019-04-03T04:49:38.230Z,140.00
2019-04-03T04:50:38.221Z,152.00
2019-04-03T04:51:38.218Z,164.00
2019-04-03T04:52:39.013Z,180.00
2019-04-03T04:53:38.178Z,192.00
2019-04-03T04:54:38.211Z,212.00
2019-04-03T04:55:38.173Z,228.00
2019-04-03T04:56:38.890Z,248.00
2019-04-03T04:57:40.256Z,264.00
2019-04-03T04:58:38.280Z,280.00
2019-04-03T04:59:38.147Z,304.00
2019-04-03T05:00:38.341Z,324.00
2019-04-03T05:01:38.304Z,344.00
2019-04-03T05:02:38.088Z,368.00
2019-04-03T05:03:38.079Z,392.00
2019-04-03T05:04:38.072Z,412.00
2019-04-03T05:05:38.141Z,428.00
2019-04-03T05:06:38.041Z,444.00
2019-04-03T05:07:38.053Z,460.00
2019-04-03T05:08:38.033Z,472.00
2019-04-03T05:09:38.014Z,484.00
2019-04-03T05:10:38.029Z,492.00
2019-04-03T05:11:39.096Z,504.00
2019-04-03T05:12:39.152Z,508.00
2019-04-03T05:13:37.966Z,516.00
2019-04-03T05:14:37.963Z,524.00
2019-04-03T05:15:37.975Z,536.00
2019-04-03T05:16:37.934Z,548.00
2019-04-03T05:17:37.932Z,568.00
2019-04-03T05:18:38.002Z,588.00
2019-04-03T05:19:37.900Z,612.00
2019-04-03T05:20:37.921Z,636.00
2019-04-03T05:21:37.911Z,660.00
2019-04-03T05:22:37.886Z,692.00
2019-04-03T05:23:37.863Z,720.00
2019-04-03T05:24:37.848Z,748.00
2019-04-03T05:25:37.865Z,776.00
2019-04-03T05:26:37.851Z,804.00
2019-04-03T05:27:37.812Z,832.00
2019-04-03T05:28:37.814Z,860.00
2019-04-03T05:29:37.806Z,892.00
2019-04-03T05:30:38.038Z,924.00
2019-04-03T05:31:39.028Z,956.00
2019-04-03T05:32:39.360Z,988.00
2019-04-03T05:33:37.758Z,1016.00
2019-04-03T05:34:37.948Z,1048.00
2019-04-03T05:35:37.751Z,1080.00
2019-04-03T05:36:37.744Z,1116.00
2019-04-03T05:37:37.920Z,1152.00
2019-04-03T05:38:38.483Z,1188.00
2019-04-03T05:39:38.445Z,1224.00
2019-04-03T05:40:37.680Z,1264.00
2019-04-03T05:41:37.915Z,1308.00
2019-04-03T05:42:37.657Z,1352.00
2019-04-03T05:43:37.991Z,1392.00
2019-04-03T05:44:37.632Z,1440.00
2019-04-03T05:45:37.631Z,1476.00
2019-04-03T05:46:37.935Z,1516.00
2019-04-03T05:47:39.514Z,1556.00
2019-04-03T05:48:37.586Z,1600.00
2019-04-03T05:49:37.606Z,1640.00
2019-04-03T05:50:37.570Z,1684.00
2019-04-03T05:51:37.556Z,1732.00
2019-04-03T05:52:37.568Z,1780.00
2019-04-03T05:53:38.069Z,1832.00
2019-04-03T05:54:39.600Z,1884.00
2019-04-03T05:55:39.068Z,1936.00
2019-04-03T05:56:37.504Z,1976.00
2019-04-03T05:57:37.512Z,2012.00
2019-04-03T05:58:37.486Z,2048.00
2019-04-03T05:59:37.477Z,2088.00
2019-04-03T06:00:38.146Z,2132.00
2019-04-03T06:01:37.454Z,2180.00
2019-04-03T06:02:37.445Z,2220.00
2019-04-03T06:03:40.850Z,2272.00
2019-04-03T06:04:40.173Z,2324.00
2019-04-03T06:05:37.408Z,2372.00
2019-04-03T06:06:37.400Z,2412.00
2019-04-03T06:07:37.383Z,2436.00
2019-04-03T06:08:37.523Z,2456.00
2019-04-03T06:09:37.362Z,2480.00
2019-04-03T06:10:37.650Z,2492.00
2019-04-03T06:11:39.830Z,2484.00
2019-04-03T06:12:37.829Z,2460.00
2019-04-03T06:13:37.500Z,2432.00
2019-04-03T06:14:37.308Z,2432.00
2019-04-03T06:15:37.402Z,2448.00
2019-04-03T06:16:37.279Z,2532.00
2019-04-03T06:17:37.273Z,2656.00
2019-04-03T06:18:37.264Z,2776.00
2019-04-03T06:19:39.536Z,2928.00
2019-04-03T06:20:37.441Z,3100.00
2019-04-03T06:21:37.226Z,3304.00
2019-04-03T06:22:37.213Z,3492.00
2019-04-03T06:23:37.199Z,3644.00
2019-04-03T06:24:37.225Z,3788.00
2019-04-03T06:25:37.192Z,3940.00
2019-04-03T06:26:38.061Z,4084.00
2019-04-03T06:27:37.179Z,4208.00
2019-04-03T06:28:37.145Z,4300.00
2019-04-03T06:29:37.165Z,4372.00
2019-04-03T06:30:37.265Z,4372.00
2019-04-03T06:31:37.189Z,4280.00
2019-04-03T06:32:37.133Z,4156.00
2019-04-03T06:33:37.097Z,4104.00
2019-04-03T06:34:38.655Z,4056.00
2019-04-03T06:35:37.107Z,4040.00
2019-04-03T06:36:37.195Z,4000.00
2019-04-03T06:37:37.050Z,3992.00
2019-04-03T06:38:37.051Z,4092.00
2019-04-03T06:39:37.035Z,4108.00
2019-04-03T06:40:37.039Z,4152.00
2019-04-03T06:41:37.003Z,4260.00
2019-04-03T06:42:36.997Z,4304.00
2019-04-03T06:43:36.985Z,4372.00
2019-04-03T06:44:37.914Z,4468.00
2019-04-03T06:45:36.989Z,4560.00
2019-04-03T06:46:36.962Z,4580.00
2019-04-03T06:47:36.957Z,4512.00
2019-04-03T06:48:37.243Z,4328.00
2019-04-03T06:49:39.788Z,4080.00
2019-04-03T06:50:36.941Z,4180.00
2019-04-03T06:51:36.903Z,4268.00
2019-04-03T06:52:36.887Z,4428.00
2019-04-03T06:53:36.955Z,4584.00
2019-04-03T06:54:36.880Z,4712.00
2019-04-03T06:55:36.853Z,4868.00
2019-04-03T06:56:38.340Z,5028.00
2019-04-03T06:57:39.065Z,5132.00
2019-04-03T06:58:39.594Z,5112.00
2019-04-03T06:59:37.007Z,5172.00
2019-04-03T07:00:36.836Z,5224.00
2019-04-03T07:01:36.793Z,5300.00
2019-04-03T07:02:36.840Z,5504.00
2019-04-03T07:03:36.888Z,5664.00
2019-04-03T07:04:38.395Z,5996.00
2019-04-03T07:05:36.752Z,6040.00
2019-04-03T07:06:36.738Z,6116.00
2019-04-03T07:07:36.750Z,6292.00
2019-04-03T07:08:40.092Z,6416.00
2019-04-03T07:09:37.264Z,6404.00
2019-04-03T07:10:37.034Z,6400.00
2019-04-03T07:11:36.718Z,6408.00
2019-04-03T07:12:36.718Z,6356.00
2019-04-03T07:13:36.679Z,6288.00
2019-04-03T07:14:36.646Z,6224.00
2019-04-03T07:15:36.686Z,6120.00
2019-04-03T07:16:38.580Z,6132.00
2019-04-03T07:17:36.648Z,6120.00
2019-04-03T07:18:37.467Z,6180.00
2019-04-03T07:19:37.889Z,6220.00
2019-04-03T07:20:36.577Z,6256.00
2019-04-03T07:21:36.757Z,6368.00
2019-04-03T07:22:36.566Z,6392.00
2019-04-03T07:23:36.576Z,6388.00
2019-04-03T07:24:36.536Z,6412.00
2019-04-03T07:25:36.708Z,6460.00
2019-04-03T07:26:36.514Z,6488.00
2019-04-03T07:27:37.479Z,6416.00
2019-04-03T07:28:36.497Z,6444.00
2019-04-03T07:29:36.490Z,6396.00
2019-04-03T07:30:36.759Z,6340.00
2019-04-03T07:31:36.492Z,6264.00
2019-04-03T07:32:36.481Z,6208.00
2019-04-03T07:33:36.463Z,6228.00
2019-04-03T07:34:36.444Z,6288.00
2019-04-03T07:35:39.247Z,6496.00
2019-04-03T07:36:36.596Z,6700.00
2019-04-03T07:37:36.406Z,6904.00
2019-04-03T07:38:36.535Z,7060.00
2019-04-03T07:39:36.373Z,7128.00
2019-04-03T07:40:36.527Z,7492.00
2019-04-03T07:41:36.421Z,7768.00
2019-04-03T07:42:36.374Z,7916.00
2019-04-03T07:43:36.362Z,8004.00
2019-04-03T07:44:36.347Z,8068.00
2019-04-03T07:45:36.306Z,8364.00
2019-04-03T07:46:36.295Z,8640.00
2019-04-03T07:47:36.288Z,8948.00
2019-04-03T07:48:37.939Z,9072.00
2019-04-03T07:49:37.722Z,9144.00
2019-04-03T07:50:37.136Z,9392.00
2019-04-03T07:51:36.248Z,9656.00
2019-04-03T07:52:36.232Z,9720.00
2019-04-03T07:53:36.220Z,9732.00
2019-04-03T07:54:36.245Z,9648.00
2019-04-03T07:55:36.242Z,9480.00
2019-04-03T07:56:36.188Z,9452.00
2019-04-03T07:57:37.104Z,9680.00
2019-04-03T07:58:36.345Z,9864.00
2019-04-03T07:59:36.179Z,9968.00
2019-04-03T08:00:38.358Z,10332.00
2019-04-03T08:01:36.162Z,10568.00
2019-04-03T08:02:36.130Z,10896.00
2019-04-03T08:03:36.123Z,11404.00
2019-04-03T08:04:36.110Z,11748.00
2019-04-03T08:05:36.129Z,12192.00
2019-04-03T08:06:36.465Z,12332.00
2019-04-03T08:07:36.072Z,12356.00
2019-04-03T08:08:36.117Z,12520.00
2019-04-03T08:09:36.056Z,12616.00
2019-04-03T08:10:37.816Z,12508.00
2019-04-03T08:11:37.316Z,12440.00
2019-04-03T08:12:36.112Z,12356.00
2019-04-03T08:13:38.142Z,12248.00
2019-04-03T08:14:36.213Z,12128.00
2019-04-03T08:15:35.994Z,12180.00
2019-04-03T08:16:36.007Z,12288.00
2019-04-03T08:17:35.993Z,12612.00
2019-04-03T08:18:35.953Z,12796.00
2019-04-03T08:19:35.950Z,12816.00
2019-04-03T08:20:36.055Z,13144.00
2019-04-03T08:21:35.930Z,13104.00
2019-04-03T08:22:35.941Z,13416.00
2019-04-03T08:23:36.751Z,13488.00
2019-04-03T08:24:36.200Z,13504.00
2019-04-03T08:25:35.880Z,13436.00
2019-04-03T08:26:35.881Z,13596.00
2019-04-03T08:27:35.880Z,13732.00
2019-04-03T08:28:35.856Z,13872.00
2019-04-03T08:29:37.939Z,13540.00
2019-04-03T08:30:37.077Z,13864.00
2019-04-03T08:31:35.818Z,14116.00
2019-04-03T08:32:35.837Z,14292.00
2019-04-03T08:33:35.861Z,14376.00
2019-04-03T08:34:35.795Z,14552.00
2019-04-03T08:35:36.152Z,14428.00
2019-04-03T08:36:38.743Z,14508.00
2019-04-03T08:37:35.772Z,14892.00
2019-04-03T08:38:35.791Z,15780.00
2019-04-03T08:39:35.730Z,16212.00
2019-04-03T08:40:35.718Z,16864.00
2019-04-03T08:41:37.339Z,17568.00
2019-04-03T08:42:35.927Z,18432.00
2019-04-03T08:43:35.692Z,19680.00
2019-04-03T08:44:36.100Z,21280.00
2019-04-03T08:45:37.810Z,23392.00
2019-04-03T08:46:35.685Z,31776.00
2019-04-03T08:47:37.633Z,45184.00
2019-04-03T08:48:35.655Z,55040.00
2019-04-03T08:49:35.620Z,57536.00
2019-04-03T08:50:35.665Z,58048.00
2019-04-03T08:51:35.604Z,57568.00
2019-04-03T08:52:37.147Z,54976.00
2019-04-03T08:53:38.461Z,53728.00
2019-04-03T08:54:35.590Z,53856.00
2019-04-03T08:55:35.551Z,54656.00
2019-04-03T08:56:35.546Z,52800.00
2019-04-03T08:57:35.543Z,51552.00
2019-04-03T08:58:35.844Z,49280.00
2019-04-03T08:59:35.533Z,46560.00
2019-04-03T09:00:35.513Z,44224.00
2019-04-03T09:01:37.100Z,42496.00
2019-04-03T09:02:35.525Z,39840.00
2019-04-03T09:03:35.474Z,39136.00
2019-04-03T09:04:35.482Z,42656.00
2019-04-03T09:05:35.451Z,47168.00
2019-04-03T09:06:35.443Z,51616.00
2019-04-03T09:07:35.424Z,52320.00
2019-04-03T09:08:35.421Z,49344.00
2019-04-03T09:09:35.873Z,49088.00
2019-04-03T09:10:37.052Z,48512.00
2019-04-03T09:11:36.317Z,49888.00
2019-04-03T09:12:37.623Z,52448.00
2019-04-03T09:13:35.677Z,54976.00
2019-04-03T09:14:35.401Z,55328.00
2019-04-03T09:15:35.351Z,56352.00
2019-04-03T09:16:35.630Z,56832.00
2019-04-03T09:17:35.459Z,57632.00
2019-04-03T09:18:37.848Z,58560.00
2019-04-03T09:19:35.303Z,58624.00
2019-04-03T09:20:36.000Z,58752.00
2019-04-03T09:21:35.301Z,57952.00
2019-04-03T09:22:35.375Z,58240.00
2019-04-03T09:23:35.269Z,60544.00
2019-04-03T09:24:35.259Z,62528.00
2019-04-03T09:25:43.318Z,63008.00
2019-04-03T09:26:38.048Z,62496.00
2019-04-03T09:27:35.224Z,62208.00
2019-04-03T09:28:35.212Z,62464.00
2019-04-03T09:29:35.327Z,65248.00
2019-04-03T09:30:35.222Z,66272.00
2019-04-03T09:31:35.195Z,65920.00
2019-04-03T09:32:36.973Z,65568.00
2019-04-03T09:33:35.169Z,66400.00
2019-04-03T09:34:35.151Z,68032.00
2019-04-03T09:35:35.414Z,69728.00
2019-04-03T09:36:35.563Z,69728.00
2019-04-03T09:37:38.074Z,70464.00
2019-04-03T09:38:36.418Z,67872.00
2019-04-03T09:39:35.268Z,66400.00
2019-04-03T09:40:35.129Z,67264.00
2019-04-03T09:41:35.249Z,68576.00
2019-04-03T09:42:35.069Z,70848.00
2019-04-03T09:43:35.061Z,70464.00
2019-04-03T09:44:35.329Z,71552.00
2019-04-03T09:45:35.046Z,70560.00
2019-04-03T09:46:35.050Z,71328.00
2019-04-03T09:47:35.693Z,74464.00
2019-04-03T09:48:37.103Z,73792.00
2019-04-03T09:49:35.005Z,73568.00
2019-04-03T09:50:35.073Z,73376.00
2019-04-03T09:51:35.012Z,73376.00
2019-04-03T09:52:40.313Z,71584.00
2019-04-03T09:53:35.982Z,72768.00
2019-04-03T09:54:35.002Z,72320.00
2019-04-03T09:55:36.936Z,73248.00
2019-04-03T09:56:36.861Z,72736.00
2019-04-03T09:57:34.931Z,70048.00
2019-04-03T09:58:35.797Z,64768.00
2019-04-03T09:59:37.443Z,59328.00
2019-04-03T10:00:35.199Z,58112.00
2019-04-03T10:01:35.120Z,57856.00
2019-04-03T10:02:34.885Z,59072.00
2019-04-03T10:03:34.911Z,59456.00
2019-04-03T10:04:34.883Z,62144.00
2019-04-03T10:05:35.032Z,69312.00
2019-04-03T10:06:35.167Z,70848.00
2019-04-03T10:07:36.391Z,68640.00
2019-04-03T10:08:35.072Z,66752.00
2019-04-03T10:09:37.617Z,68032.00
2019-04-03T10:10:34.810Z,66208.00
2019-04-03T10:11:34.832Z,68896.00
2019-04-03T10:12:34.799Z,68608.00
2019-04-03T10:13:34.954Z,69504.00
2019-04-03T10:14:34.872Z,62528.00
2019-04-03T10:15:34.762Z,47488.00
2019-04-03T10:16:35.646Z,45472.00
2019-04-03T10:17:35.155Z,44480.00
2019-04-03T10:18:35.051Z,48128.00
2019-04-03T10:19:34.726Z,51712.00
2019-04-03T10:20:34.731Z,54752.00
2019-04-03T10:21:34.721Z,57472.00
2019-04-03T10:22:34.703Z,55200.00
2019-04-03T10:23:34.702Z,54272.00
2019-04-03T10:24:34.681Z,51520.00
2019-04-03T10:25:36.823Z,36864.00
2019-04-03T10:26:34.918Z,23456.00
2019-04-03T10:27:34.652Z,21920.00
2019-04-03T10:28:34.646Z,20832.00
2019-04-03T10:29:34.647Z,19296.00
2019-04-03T10:30:34.620Z,19040.00
2019-04-03T10:31:34.614Z,18976.00
2019-04-03T10:32:34.593Z,17856.00
2019-04-03T10:33:34.604Z,17856.00
2019-04-03T10:34:35.738Z,15680.00
2019-04-03T10:35:34.574Z,13964.00
2019-04-03T10:36:34.558Z,13260.00
2019-04-03T10:37:34.549Z,13492.00
2019-04-03T10:38:34.857Z,14320.00
2019-04-03T10:39:34.594Z,14864.00
2019-04-03T10:40:34.513Z,13040.00
2019-04-03T10:41:34.755Z,12996.00
2019-04-03T10:42:34.689Z,13108.00
2019-04-03T10:43:36.302Z,13248.00
2019-04-03T10:44:34.496Z,13284.00
2019-04-03T10:45:34.825Z,13656.00
2019-04-03T10:46:34.451Z,14004.00
2019-04-03T10:47:41.110Z,13868.00
2019-04-03T10:48:35.801Z,13868.00
2019-04-03T10:49:34.425Z,14068.00
2019-04-03T10:50:36.392Z,13616.00
2019-04-03T10:51:34.406Z,13824.00
2019-04-03T10:52:34.390Z,12372.00
2019-04-03T10:53:34.378Z,11764.00
2019-04-03T10:54:37.134Z,11444.00
2019-04-03T10:55:34.725Z,11384.00
2019-04-03T10:56:34.348Z,11060.00
2019-04-03T10:57:34.992Z,11280.00
2019-04-03T10:58:34.477Z,11420.00
2019-04-03T10:59:34.343Z,11316.00
2019-04-03T11:00:34.305Z,11252.00
2019-04-03T11:01:34.624Z,11448.00
2019-04-03T11:02:34.290Z,11572.00
2019-04-03T11:03:34.277Z,11212.00
2019-04-03T11:04:34.261Z,11292.00
2019-04-03T11:05:34.270Z,11492.00
2019-04-03T11:06:36.515Z,11720.00
2019-04-03T11:07:34.238Z,12000.00
2019-04-03T11:08:34.221Z,12056.00
2019-04-03T11:09:34.375Z,12224.00
2019-04-03T11:10:34.261Z,12968.00
2019-04-03T11:11:36.528Z,13016.00
2019-04-03T11:12:34.498Z,12560.00
2019-04-03T11:13:34.809Z,12432.00
2019-04-03T11:14:34.182Z,12312.00
2019-04-03T11:15:34.149Z,12040.00
2019-04-03T11:16:34.374Z,11600.00
2019-04-03T11:17:34.150Z,11268.00
2019-04-03T11:18:34.108Z,11196.00
2019-04-03T11:19:35.105Z,10504.00
2019-04-03T11:20:36.071Z,10244.00
2019-04-03T11:21:34.335Z,10336.00
2019-04-03T11:22:40.421Z,10516.00
2019-04-03T11:23:38.980Z,10716.00
2019-04-03T11:24:37.714Z,11924.00
2019-04-03T11:25:34.034Z,12032.00
2019-04-03T11:26:34.393Z,11392.00
2019-04-03T11:27:41.803Z,10720.00
2019-04-03T11:28:37.749Z,10212.00
2019-04-03T11:29:34.019Z,10340.00
2019-04-03T11:30:34.012Z,10736.00
2019-04-03T11:31:40.979Z,10936.00
2019-04-03T11:32:35.098Z,11532.00
2019-04-03T11:33:34.050Z,12100.00
2019-04-03T11:34:33.941Z,12348.00
2019-04-03T11:35:33.965Z,12452.00
2019-04-03T11:36:33.949Z,12536.00
2019-04-03T11:37:33.906Z,12128.00
2019-04-03T11:38:33.901Z,10884.00
2019-04-03T11:39:34.190Z,10400.00
2019-04-03T11:40:33.912Z,10400.00
2019-04-03T11:41:33.864Z,11532.00
2019-04-03T11:42:33.851Z,11496.00
2019-04-03T11:43:33.852Z,10688.00
2019-04-03T11:44:33.827Z,10084.00
2019-04-03T11:45:33.820Z,9284.00
2019-04-03T11:46:34.233Z,8960.00
2019-04-03T11:47:33.802Z,8468.00
2019-04-03T11:48:33.794Z,8080.00
2019-04-03T11:49:33.780Z,7904.00
2019-04-03T11:50:33.764Z,7844.00
2019-04-03T11:51:34.512Z,7580.00
2019-04-03T11:52:33.748Z,7856.00
2019-04-03T11:53:35.538Z,8572.00
2019-04-03T11:54:34.027Z,9540.00
2019-04-03T11:55:33.719Z,10764.00
2019-04-03T11:56:33.768Z,11232.00
2019-04-03T11:57:33.691Z,11524.00
2019-04-03T11:58:33.681Z,11540.00
2019-04-03T11:59:33.712Z,10528.00
2019-04-03T12:00:33.667Z,10036.00
2019-04-03T12:01:33.657Z,9376.00
2019-04-03T12:02:33.902Z,9008.00
2019-04-03T12:03:33.622Z,8796.00
2019-04-03T12:04:33.634Z,8812.00
2019-04-03T12:05:33.894Z,8740.00
2019-04-03T12:06:33.615Z,8772.00
2019-04-03T12:07:33.992Z,7688.00
2019-04-03T12:08:33.725Z,6372.00
2019-04-03T12:09:33.739Z,6324.00
2019-04-03T12:10:35.143Z,7384.00
2019-04-03T12:11:33.801Z,8276.00
2019-04-03T12:12:33.852Z,7812.00
2019-04-03T12:13:33.902Z,7552.00
2019-04-03T12:14:33.503Z,7528.00
2019-04-03T12:15:34.271Z,7380.00
2019-04-03T12:16:33.689Z,7144.00
2019-04-03T12:17:33.476Z,7208.00
2019-04-03T12:18:34.274Z,6972.00
2019-04-03T12:19:36.795Z,6788.00
2019-04-03T12:20:33.870Z,6548.00
2019-04-03T12:21:33.442Z,6140.00
2019-04-03T12:22:33.419Z,5576.00
2019-04-03T12:23:33.526Z,5168.00
2019-04-03T12:24:33.423Z,5748.00
2019-04-03T12:25:34.454Z,6168.00